sensor_id;sensor_type;location;lat;lon;timestamp;pressure;altitude;pressure_sealevel;temperature;humidity
48053;BME280;33824;51.600;5.718;2023-04-19T00:01:19;102513.69;;;11.18;78.97
48053;BME280;33824;51.600;5.718;2023-04-19T00:03:45;102502.28;;;11.16;78.89
48053;BME280;33824;51.600;5.718;2023-04-19T00:06:10;102495.84;;;11.18;79.26
48053;BME280;33824;51.600;5.718;2023-04-19T00:08:40;102493.00;;;11.20;79.39
48053;BME280;33824;51.600;5.718;2023-04-19T00:11:06;102498.34;;;11.20;79.18
48053;BME280;33824;51.600;5.718;2023-04-19T00:13:32;102490.06;;;11.23;78.92
48053;BME280;33824;51.600;5.718;2023-04-19T00:15:58;102473.34;;;11.21;79.42
48053;BME280;33824;51.600;5.718;2023-04-19T00:18:23;102490.50;;;11.18;79.57
48053;BME280;33824;51.600;5.718;2023-04-19T00:20:49;102488.66;;;11.19;79.51
48053;BME280;33824;51.600;5.718;2023-04-19T00:23:14;102481.47;;;11.19;79.54
48053;BME280;33824;51.600;5.718;2023-04-19T00:25:40;102483.91;;;11.22;79.40
48053;BME280;33824;51.600;5.718;2023-04-19T00:28:05;102480.91;;;11.16;79.63
48053;BME280;33824;51.600;5.718;2023-04-19T00:30:31;102478.69;;;11.21;79.65
48053;BME280;33824;51.600;5.718;2023-04-19T00:32:57;102472.63;;;11.19;79.66
48053;BME280;33824;51.600;5.718;2023-04-19T00:35:22;102481.34;;;11.21;79.77
48053;BME280;33824;51.600;5.718;2023-04-19T00:37:48;102477.41;;;11.15;79.87
48053;BME280;33824;51.600;5.718;2023-04-19T00:40:13;102482.63;;;11.17;80.01
48053;BME280;33824;51.600;5.718;2023-04-19T00:42:41;102480.78;;;11.17;80.09
48053;BME280;33824;51.600;5.718;2023-04-19T00:45:07;102477.97;;;11.19;80.02
48053;BME280;33824;51.600;5.718;2023-04-19T00:47:33;102470.13;;;11.17;80.22
48053;BME280;33824;51.600;5.718;2023-04-19T00:50:01;102477.97;;;11.19;80.11
48053;BME280;33824;51.600;5.718;2023-04-19T00:52:27;102467.72;;;11.14;80.35
48053;BME280;33824;51.600;5.718;2023-04-19T00:54:52;102470.97;;;11.18;80.58
48053;BME280;33824;51.600;5.718;2023-04-19T00:57:20;102479.09;;;11.16;80.68
48053;BME280;33824;51.600;5.718;2023-04-19T00:59:46;102477.16;;;11.18;80.30
48053;BME280;33824;51.600;5.718;2023-04-19T01:02:12;102482.19;;;11.12;80.89
48053;BME280;33824;51.600;5.718;2023-04-19T01:04:37;102469.25;;;11.17;80.92
48053;BME280;33824;51.600;5.718;2023-04-19T01:07:03;102472.06;;;11.15;81.04
48053;BME280;33824;51.600;5.718;2023-04-19T01:09:28;102466.72;;;11.15;81.23
48053;BME280;33824;51.600;5.718;2023-04-19T01:11:54;102464.06;;;11.15;81.38
48053;BME280;33824;51.600;5.718;2023-04-19T01:14:20;102465.91;;;11.15;82.51
48053;BME280;33824;51.600;5.718;2023-04-19T01:16:45;102469.56;;;11.14;81.91
48053;BME280;33824;51.600;5.718;2023-04-19T01:19:12;102462.09;;;11.17;82.09
48053;BME280;33824;51.600;5.718;2023-04-19T01:21:37;102466.59;;;11.17;82.38
48053;BME280;33824;51.600;5.718;2023-04-19T01:24:04;102461.81;;;11.20;82.38
48053;BME280;33824;51.600;5.718;2023-04-19T01:26:30;102460.84;;;11.21;82.58
48053;BME280;33824;51.600;5.718;2023-04-19T01:28:55;102467.59;;;11.25;82.79
48053;BME280;33824;51.600;5.718;2023-04-19T01:31:21;102459.31;;;11.28;82.84
48053;BME280;33824;51.600;5.718;2023-04-19T01:33:46;102453.84;;;11.30;82.95
48053;BME280;33824;51.600;5.718;2023-04-19T01:36:12;102453.41;;;11.34;82.83
48053;BME280;33824;51.600;5.718;2023-04-19T01:38:37;102461.84;;;11.39;82.87
48053;BME280;33824;51.600;5.718;2023-04-19T01:41:03;102454.25;;;11.44;82.77
48053;BME280;33824;51.600;5.718;2023-04-19T01:43:30;102451.31;;;11.47;82.86
48053;BME280;33824;51.600;5.718;2023-04-19T01:45:56;102456.91;;;11.54;82.54
48053;BME280;33824;51.600;5.718;2023-04-19T01:48:21;102451.44;;;11.55;82.97
48053;BME280;33824;51.600;5.718;2023-04-19T01:50:47;102451.28;;;11.57;83.00
48053;BME280;33824;51.600;5.718;2023-04-19T01:53:12;102447.75;;;11.56;82.89
48053;BME280;33824;51.600;5.718;2023-04-19T01:55:38;102452.13;;;11.57;82.67
48053;BME280;33824;51.600;5.718;2023-04-19T01:58:03;102457.06;;;11.52;82.69
48053;BME280;33824;51.600;5.718;2023-04-19T02:00:29;102452.16;;;11.48;82.81
48053;BME280;33824;51.600;5.718;2023-04-19T02:02:55;102446.25;;;11.44;83.18
48053;BME280;33824;51.600;5.718;2023-04-19T02:05:20;102451.72;;;11.43;83.52
48053;BME280;33824;51.600;5.718;2023-04-19T02:07:46;102451.59;;;11.44;83.55
48053;BME280;33824;51.600;5.718;2023-04-19T02:10:11;102444.25;;;11.46;83.47
48053;BME280;33824;51.600;5.718;2023-04-19T02:12:37;102443.41;;;11.46;83.27
48053;BME280;33824;51.600;5.718;2023-04-19T02:15:03;102448.47;;;11.49;83.70
48053;BME280;33824;51.600;5.718;2023-04-19T02:17:29;102440.31;;;11.50;83.45
48053;BME280;33824;51.600;5.718;2023-04-19T02:19:55;102444.53;;;11.53;83.47
48053;BME280;33824;51.600;5.718;2023-04-19T02:22:20;102444.53;;;11.53;83.63
48053;BME280;33824;51.600;5.718;2023-04-19T02:24:48;102439.19;;;11.53;83.62
48053;BME280;33824;51.600;5.718;2023-04-19T02:27:14;102438.09;;;11.55;83.40
48053;BME280;33824;51.600;5.718;2023-04-19T02:29:39;102443.84;;;11.51;83.67
48053;BME280;33824;51.600;5.718;2023-04-19T02:32:05;102446.38;;;11.52;83.61
48053;BME280;33824;51.600;5.718;2023-04-19T02:34:32;102438.50;;;11.51;83.68
48053;BME280;33824;51.600;5.718;2023-04-19T02:36:57;102434.84;;;11.52;83.64
48053;BME280;33824;51.600;5.718;2023-04-19T02:39:23;102437.66;;;11.50;83.61
48053;BME280;33824;51.600;5.718;2023-04-19T02:41:49;102442.88;;;11.52;83.63
48053;BME280;33824;51.600;5.718;2023-04-19T02:44:15;102438.50;;;11.41;84.23
48053;BME280;33824;51.600;5.718;2023-04-19T02:46:40;102444.41;;;11.35;84.58
48053;BME280;33824;51.600;5.718;2023-04-19T02:49:06;102447.91;;;11.36;84.44
48053;BME280;33824;51.600;5.718;2023-04-19T02:51:31;102443.97;;;11.30;84.90
48053;BME280;33824;51.600;5.718;2023-04-19T02:53:57;102446.25;;;11.25;84.91
48053;BME280;33824;51.600;5.718;2023-04-19T02:56:22;102443.69;;;11.24;85.20
48053;BME280;33824;51.600;5.718;2023-04-19T02:58:48;102443.41;;;11.17;85.54
48053;BME280;33824;51.600;5.718;2023-04-19T03:01:14;102446.91;;;11.08;85.99
48053;BME280;33824;51.600;5.718;2023-04-19T03:03:39;102440.47;;;11.11;85.71
48053;BME280;33824;51.600;5.718;2023-04-19T03:06:07;102447.75;;;11.08;86.02
48053;BME280;33824;51.600;5.718;2023-04-19T03:08:32;102451.16;;;11.11;85.59
48053;BME280;33824;51.600;5.718;2023-04-19T03:10:58;102450.13;;;11.12;85.45
48053;BME280;33824;51.600;5.718;2023-04-19T03:13:23;102448.44;;;11.01;86.16
48053;BME280;33824;51.600;5.718;2023-04-19T03:15:49;102447.19;;;11.05;86.11
48053;BME280;33824;51.600;5.718;2023-04-19T03:18:15;102439.75;;;11.08;85.70
48053;BME280;33824;51.600;5.718;2023-04-19T03:20:41;102450.13;;;11.12;85.69
48053;BME280;33824;51.600;5.718;2023-04-19T03:23:07;102439.47;;;11.02;85.91
48053;BME280;33824;51.600;5.718;2023-04-19T03:25:32;102441.72;;;11.06;85.72
48053;BME280;33824;51.600;5.718;2023-04-19T03:27:58;102439.19;;;11.05;85.73
48053;BME280;33824;51.600;5.718;2023-04-19T03:30:23;102427.91;;;10.92;86.30
48053;BME280;33824;51.600;5.718;2023-04-19T03:32:49;102426.94;;;10.93;86.19
48053;BME280;33824;51.600;5.718;2023-04-19T03:35:16;102443.66;;;10.95;86.06
48053;BME280;33824;51.600;5.718;2023-04-19T03:37:42;102435.50;;;10.96;85.93
48053;BME280;33824;51.600;5.718;2023-04-19T03:40:07;102433.00;;;10.95;85.96
48053;BME280;33824;51.600;5.718;2023-04-19T03:42:35;102431.59;;;10.91;86.22
48053;BME280;33824;51.600;5.718;2023-04-19T03:45:00;102438.00;;;10.88;86.51
48053;BME280;33824;51.600;5.718;2023-04-19T03:47:26;102434.78;;;10.85;86.42
48053;BME280;33824;51.600;5.718;2023-04-19T03:49:51;102434.50;;;10.78;86.64
48053;BME280;33824;51.600;5.718;2023-04-19T03:52:17;102433.66;;;10.78;86.64
48053;BME280;33824;51.600;5.718;2023-04-19T03:54:42;102442.91;;;10.74;86.71
48053;BME280;33824;51.600;5.718;2023-04-19T03:57:10;102437.56;;;10.74;86.17
48053;BME280;33824;51.600;5.718;2023-04-19T03:59:37;102437.00;;;10.70;86.62
48053;BME280;33824;51.600;5.718;2023-04-19T04:02:03;102431.94;;;10.67;86.44
48053;BME280;33824;51.600;5.718;2023-04-19T04:04:28;102443.72;;;10.65;86.63
48053;BME280;33824;51.600;5.718;2023-04-19T04:06:54;102452.41;;;10.57;86.70
48053;BME280;33824;51.600;5.718;2023-04-19T04:09:19;102438.06;;;10.48;87.04
48053;BME280;33824;51.600;5.718;2023-04-19T04:11:45;102445.59;;;10.43;87.04
48053;BME280;33824;51.600;5.718;2023-04-19T04:14:10;102438.84;;;10.39;86.78
48053;BME280;33824;51.600;5.718;2023-04-19T04:16:36;102440.25;;;10.34;86.91
48053;BME280;33824;51.600;5.718;2023-04-19T04:19:02;102440.91;;;10.26;86.62
48053;BME280;33824;51.600;5.718;2023-04-19T04:21:27;102447.03;;;10.17;86.81
48053;BME280;33824;51.600;5.718;2023-04-19T04:23:53;102436.09;;;9.99;87.42
48053;BME280;33824;51.600;5.718;2023-04-19T04:26:18;102449.69;;;9.96;87.18
48053;BME280;33824;51.600;5.718;2023-04-19T04:28:44;102444.03;;;9.90;87.27
48053;BME280;33824;51.600;5.718;2023-04-19T04:31:10;102448.19;;;9.83;87.08
48053;BME280;33824;51.600;5.718;2023-04-19T04:33:37;102446.81;;;9.68;87.67
48053;BME280;33824;51.600;5.718;2023-04-19T04:36:02;102442.34;;;9.68;87.58
48053;BME280;33824;51.600;5.718;2023-04-19T04:38:29;102447.09;;;9.64;87.68
48053;BME280;33824;51.600;5.718;2023-04-19T04:40:55;102447.47;;;9.60;87.56
48053;BME280;33824;51.600;5.718;2023-04-19T04:43:23;102455.84;;;9.55;87.72
48053;BME280;33824;51.600;5.718;2023-04-19T04:45:49;102441.94;;;9.52;87.52
48053;BME280;33824;51.600;5.718;2023-04-19T04:48:14;102448.75;;;9.45;88.05
48053;BME280;33824;51.600;5.718;2023-04-19T04:50:41;102439.22;;;9.42;87.60
48053;BME280;33824;51.600;5.718;2023-04-19T04:53:06;102458.94;;;9.40;88.00
48053;BME280;33824;51.600;5.718;2023-04-19T04:55:33;102457.25;;;9.39;87.90
48053;BME280;33824;51.600;5.718;2023-04-19T04:57:58;102450.34;;;9.36;87.79
48053;BME280;33824;51.600;5.718;2023-04-19T05:00:25;102455.69;;;9.36;87.66
48053;BME280;33824;51.600;5.718;2023-04-19T05:02:50;102458.50;;;9.35;87.52
48053;BME280;33824;51.600;5.718;2023-04-19T05:05:16;102459.44;;;9.34;87.19
48053;BME280;33824;51.600;5.718;2023-04-19T05:07:41;102460.31;;;9.34;87.09
48053;BME280;33824;51.600;5.718;2023-04-19T05:10:07;102464.88;;;9.32;86.94
48053;BME280;33824;51.600;5.718;2023-04-19T05:12:33;102459.56;;;9.32;87.51
48053;BME280;33824;51.600;5.718;2023-04-19T05:14:58;102453.66;;;9.29;87.12
48053;BME280;33824;51.600;5.718;2023-04-19T05:17:24;102460.94;;;9.27;87.69
48053;BME280;33824;51.600;5.718;2023-04-19T05:19:50;102457.91;;;9.31;87.55
48053;BME280;33824;51.600;5.718;2023-04-19T05:22:15;102457.06;;;9.31;87.45
48053;BME280;33824;51.600;5.718;2023-04-19T05:24:41;102461.59;;;9.40;87.58
48053;BME280;33824;51.600;5.718;2023-04-19T05:27:06;102466.69;;;9.43;87.24
48053;BME280;33824;51.600;5.718;2023-04-19T05:29:32;102467.72;;;9.51;87.52
48053;BME280;33824;51.600;5.718;2023-04-19T05:31:57;102464.25;;;9.51;87.12
48053;BME280;33824;51.600;5.718;2023-04-19T05:34:23;102473.13;;;9.61;86.18
48053;BME280;33824;51.600;5.718;2023-04-19T05:36:49;102465.22;;;9.71;85.85
48053;BME280;33824;51.600;5.718;2023-04-19T05:39:14;102463.00;;;9.76;84.86
48053;BME280;33824;51.600;5.718;2023-04-19T05:41:41;102458.84;;;9.83;84.58
48053;BME280;33824;51.600;5.718;2023-04-19T05:44:07;102465.34;;;9.90;83.25
48053;BME280;33824;51.600;5.718;2023-04-19T05:46:32;102477.16;;;9.97;83.17
48053;BME280;33824;51.600;5.718;2023-04-19T05:48:58;102461.38;;;10.05;82.08
48053;BME280;33824;51.600;5.718;2023-04-19T05:51:23;102455.47;;;10.01;81.12
48053;BME280;33824;51.600;5.718;2023-04-19T05:53:49;102469.38;;;10.05;80.69
48053;BME280;33824;51.600;5.718;2023-04-19T05:56:14;102473.72;;;10.06;80.37
48053;BME280;33824;51.600;5.718;2023-04-19T05:58:40;102474.00;;;10.03;79.86
48053;BME280;33824;51.600;5.718;2023-04-19T06:01:05;102472.50;;;10.10;79.71
48053;BME280;33824;51.600;5.718;2023-04-19T06:03:31;102468.22;;;10.19;78.21
48053;BME280;33824;51.600;5.718;2023-04-19T06:06:00;102464.94;;;10.36;77.83
48053;BME280;33824;51.600;5.718;2023-04-19T06:08:26;102471.28;;;10.35;77.25
48053;BME280;33824;51.600;5.718;2023-04-19T06:10:51;102469.13;;;10.29;76.52
48053;BME280;33824;51.600;5.718;2023-04-19T06:13:18;102471.41;;;10.43;75.90
48053;BME280;33824;51.600;5.718;2023-04-19T06:15:45;102472.44;;;10.51;75.29
48053;BME280;33824;51.600;5.718;2023-04-19T06:18:11;102471.03;;;10.47;74.42
48053;BME280;33824;51.600;5.718;2023-04-19T06:20:36;102476.53;;;10.55;74.21
48053;BME280;33824;51.600;5.718;2023-04-19T06:23:02;102474.31;;;10.61;73.85
48053;BME280;33824;51.600;5.718;2023-04-19T06:25:28;102469.69;;;10.63;73.53
48053;BME280;33824;51.600;5.718;2023-04-19T06:27:54;102470.44;;;10.74;73.56
48053;BME280;33824;51.600;5.718;2023-04-19T06:30:19;102473.38;;;10.71;72.45
48053;BME280;33824;51.600;5.718;2023-04-19T06:32:45;102469.16;;;10.69;71.30
48053;BME280;33824;51.600;5.718;2023-04-19T06:35:10;102475.38;;;10.79;71.62
48053;BME280;33824;51.600;5.718;2023-04-19T06:37:36;102474.56;;;10.88;71.34
48053;BME280;33824;51.600;5.718;2023-04-19T06:40:01;102475.09;;;10.82;69.53
48053;BME280;33824;51.600;5.718;2023-04-19T06:42:29;102473.53;;;10.79;70.40
48053;BME280;33824;51.600;5.718;2023-04-19T06:44:55;102459.38;;;10.88;70.48
48053;BME280;33824;51.600;5.718;2023-04-19T06:47:22;102466.84;;;10.94;69.53
48053;BME280;33824;51.600;5.718;2023-04-19T06:49:47;102458.00;;;11.03;69.81
48053;BME280;33824;51.600;5.718;2023-04-19T06:52:13;102465.88;;;11.05;68.72
48053;BME280;33824;51.600;5.718;2023-04-19T06:54:38;102475.97;;;11.11;68.47
48053;BME280;33824;51.600;5.718;2023-04-19T06:57:04;102473.78;;;11.26;68.34
48053;BME280;33824;51.600;5.718;2023-04-19T06:59:29;102468.44;;;11.26;67.33
48053;BME280;33824;51.600;5.718;2023-04-19T07:01:56;102460.72;;;11.32;67.20
48053;BME280;33824;51.600;5.718;2023-04-19T07:04:23;102452.84;;;11.40;65.94
48053;BME280;33824;51.600;5.718;2023-04-19T07:06:49;102457.50;;;11.48;64.95
48053;BME280;33824;51.600;5.718;2023-04-19T07:09:15;102457.78;;;11.45;64.90
48053;BME280;33824;51.600;5.718;2023-04-19T07:11:41;102460.44;;;11.45;63.95
48053;BME280;33824;51.600;5.718;2023-04-19T07:14:06;102457.50;;;11.48;63.59
48053;BME280;33824;51.600;5.718;2023-04-19T07:16:32;102457.63;;;11.56;63.02
48053;BME280;33824;51.600;5.718;2023-04-19T07:18:59;102459.16;;;11.59;62.72
48053;BME280;33824;51.600;5.718;2023-04-19T07:21:24;102470.44;;;11.72;63.84
48053;BME280;33824;51.600;5.718;2023-04-19T07:23:56;102460.31;;;11.75;63.44
48053;BME280;33824;51.600;5.718;2023-04-19T07:26:22;102452.53;;;11.91;62.79
48053;BME280;33824;51.600;5.718;2023-04-19T07:28:47;102460.00;;;11.88;63.06
48053;BME280;33824;51.600;5.718;2023-04-19T07:31:17;102459.72;;;12.00;61.75
48053;BME280;33824;51.600;5.718;2023-04-19T07:33:43;102448.03;;;11.92;60.73
48053;BME280;33824;51.600;5.718;2023-04-19T07:36:08;102446.34;;;12.00;61.02
48053;BME280;33824;51.600;5.718;2023-04-19T07:38:34;102459.41;;;12.03;60.54
48053;BME280;33824;51.600;5.718;2023-04-19T07:40:59;102458.81;;;12.19;61.18
48053;BME280;33824;51.600;5.718;2023-04-19T07:43:25;102455.72;;;12.24;59.47
48053;BME280;33824;51.600;5.718;2023-04-19T07:45:51;102448.66;;;12.23;59.06
48053;BME280;33824;51.600;5.718;2023-04-19T07:48:17;102451.09;;;12.16;58.08
48053;BME280;33824;51.600;5.718;2023-04-19T07:50:43;102441.38;;;12.15;58.48
48053;BME280;33824;51.600;5.718;2023-04-19T07:53:08;102455.53;;;12.25;58.20
48053;BME280;33824;51.600;5.718;2023-04-19T07:55:34;102447.63;;;12.43;58.20
48053;BME280;33824;51.600;5.718;2023-04-19T07:58:00;102460.50;;;12.57;58.30
48053;BME280;33824;51.600;5.718;2023-04-19T08:00:26;102453.91;;;12.52;56.31
48053;BME280;33824;51.600;5.718;2023-04-19T08:02:51;102450.00;;;12.46;56.34
48053;BME280;33824;51.600;5.718;2023-04-19T08:05:17;102450.78;;;12.56;56.97
48053;BME280;33824;51.600;5.718;2023-04-19T08:07:43;102441.53;;;12.78;55.93
48053;BME280;33824;51.600;5.718;2023-04-19T08:10:10;102455.66;;;12.70;55.21
48053;BME280;33824;51.600;5.718;2023-04-19T08:12:35;102459.25;;;12.79;55.81
48053;BME280;33824;51.600;5.718;2023-04-19T08:15:02;102438.25;;;12.84;54.67
48053;BME280;33824;51.600;5.718;2023-04-19T08:17:30;102437.25;;;12.85;53.71
48053;BME280;33824;51.600;5.718;2023-04-19T08:19:59;102450.03;;;12.91;53.87
48053;BME280;33824;51.600;5.718;2023-04-19T08:22:25;102446.78;;;12.97;52.82
48053;BME280;33824;51.600;5.718;2023-04-19T08:24:51;102430.75;;;13.05;52.47
48053;BME280;33824;51.600;5.718;2023-04-19T08:27:17;102440.19;;;13.09;52.80
48053;BME280;33824;51.600;5.718;2023-04-19T08:29:43;102439.81;;;13.04;51.54
48053;BME280;33824;51.600;5.718;2023-04-19T08:32:10;102443.50;;;13.21;51.22
48053;BME280;33824;51.600;5.718;2023-04-19T08:34:37;102449.50;;;13.32;51.05
48053;BME280;33824;51.600;5.718;2023-04-19T08:37:03;102439.78;;;13.31;50.18
48053;BME280;33824;51.600;5.718;2023-04-19T08:39:30;102437.38;;;13.28;48.88
48053;BME280;33824;51.600;5.718;2023-04-19T08:41:55;102432.53;;;13.24;50.04
48053;BME280;33824;51.600;5.718;2023-04-19T08:44:24;102434.34;;;13.41;49.50
48053;BME280;33824;51.600;5.718;2023-04-19T08:46:50;102425.00;;;13.45;49.54
48053;BME280;33824;51.600;5.718;2023-04-19T08:49:17;102449.75;;;13.39;48.96
48053;BME280;33824;51.600;5.718;2023-04-19T08:51:47;102445.56;;;13.62;49.52
48053;BME280;33824;51.600;5.718;2023-04-19T08:54:14;102439.13;;;13.55;47.77
48053;BME280;33824;51.600;5.718;2023-04-19T08:56:40;102436.38;;;13.47;47.23
48053;BME280;33824;51.600;5.718;2023-04-19T08:59:06;102438.28;;;13.55;47.87
48053;BME280;33824;51.600;5.718;2023-04-19T09:01:31;102430.56;;;13.52;47.33
48053;BME280;33824;51.600;5.718;2023-04-19T09:03:57;102439.06;;;13.47;48.34
48053;BME280;33824;51.600;5.718;2023-04-19T09:06:22;102442.53;;;13.57;47.53
48053;BME280;33824;51.600;5.718;2023-04-19T09:08:48;102435.47;;;13.56;46.41
48053;BME280;33824;51.600;5.718;2023-04-19T09:11:16;102435.94;;;13.52;46.23
48053;BME280;33824;51.600;5.718;2023-04-19T09:13:42;102429.44;;;13.54;45.67
48053;BME280;33824;51.600;5.718;2023-04-19T09:16:25;102438.94;;;13.49;44.90
48053;BME280;33824;51.600;5.718;2023-04-19T09:18:55;102437.47;;;13.19;45.68
48053;BME280;33824;51.600;5.718;2023-04-19T09:21:28;102427.03;;;13.51;47.34
48053;BME280;33824;51.600;5.718;2023-04-19T09:23:55;102430.31;;;13.63;48.79
48053;BME280;33824;51.600;5.718;2023-04-19T09:26:20;102424.69;;;13.48;46.57
48053;BME280;33824;51.600;5.718;2023-04-19T09:28:59;102416.91;;;13.19;44.93
48053;BME280;33824;51.600;5.718;2023-04-19T09:31:27;102435.63;;;13.37;45.76
48053;BME280;33824;51.600;5.718;2023-04-19T09:33:53;102438.78;;;13.50;45.54
48053;BME280;33824;51.600;5.718;2023-04-19T09:36:27;102416.81;;;13.47;45.52
48053;BME280;33824;51.600;5.718;2023-04-19T09:38:53;102429.38;;;13.46;45.19
48053;BME280;33824;51.600;5.718;2023-04-19T09:41:18;102418.72;;;13.54;45.67
48053;BME280;33824;51.600;5.718;2023-04-19T09:43:44;102416.50;;;13.50;45.41
48053;BME280;33824;51.600;5.718;2023-04-19T09:46:32;102417.97;;;13.26;45.58
48053;BME280;33824;51.600;5.718;2023-04-19T09:49:19;102418.88;;;13.53;43.78
48053;BME280;33824;51.600;5.718;2023-04-19T09:51:56;102422.72;;;13.76;43.51
48053;BME280;33824;51.600;5.718;2023-04-19T09:54:23;102429.22;;;13.91;45.21
48053;BME280;33824;51.600;5.718;2023-04-19T09:56:50;102400.09;;;13.96;44.00
48053;BME280;33824;51.600;5.718;2023-04-19T09:59:18;102418.88;;;14.04;44.47
48053;BME280;33824;51.600;5.718;2023-04-19T10:01:46;102415.53;;;14.02;42.96
48053;BME280;33824;51.600;5.718;2023-04-19T10:04:14;102414.16;;;13.98;42.19
48053;BME280;33824;51.600;5.718;2023-04-19T10:06:53;102418.09;;;14.12;41.42
48053;BME280;33824;51.600;5.718;2023-04-19T10:09:20;102421.63;;;14.12;42.49
48053;BME280;33824;51.600;5.718;2023-04-19T10:11:50;102414.56;;;13.85;39.83
48053;BME280;33824;51.600;5.718;2023-04-19T10:14:20;102425.69;;;13.90;40.19
48053;BME280;33824;51.600;5.718;2023-04-19T10:16:46;102420.91;;;14.02;41.15
48053;BME280;33824;51.600;5.718;2023-04-19T10:19:16;102412.78;;;13.94;40.86
48053;BME280;33824;51.600;5.718;2023-04-19T10:21:43;102410.88;;;14.12;40.63
48053;BME280;33824;51.600;5.718;2023-04-19T10:24:12;102416.84;;;13.98;38.84
48053;BME280;33824;51.600;5.718;2023-04-19T10:29:58;102396.50;;;13.87;36.04
48053;BME280;33824;51.600;5.718;2023-04-19T10:32:42;102408.53;;;14.09;39.38
48053;BME280;33824;51.600;5.718;2023-04-19T10:35:23;102392.97;;;14.47;37.68
48053;BME280;33824;51.600;5.718;2023-04-19T10:38:05;102404.78;;;14.28;34.89
48053;BME280;33824;51.600;5.718;2023-04-19T10:43:15;102410.63;;;13.98;38.09
48053;BME280;33824;51.600;5.718;2023-04-19T10:45:42;102404.94;;;14.01;38.03
48053;BME280;33824;51.600;5.718;2023-04-19T10:51:14;102404.66;;;14.04;39.42
48053;BME280;33824;51.600;5.718;2023-04-19T10:53:48;102396.00;;;14.18;40.60
48053;BME280;33824;51.600;5.718;2023-04-19T10:56:15;102393.69;;;14.23;41.87
48053;BME280;33824;51.600;5.718;2023-04-19T11:01:40;102392.72;;;13.98;40.79
48053;BME280;33824;51.600;5.718;2023-04-19T11:04:14;102384.66;;;13.98;38.19
48053;BME280;33824;51.600;5.718;2023-04-19T11:12:01;102382.09;;;14.14;41.68
48053;BME280;33824;51.600;5.718;2023-04-19T11:14:30;102378.06;;;14.18;39.30
48053;BME280;33824;51.600;5.718;2023-04-19T11:16:56;102365.81;;;14.16;38.94
48053;BME280;33824;51.600;5.718;2023-04-19T11:19:21;102363.19;;;14.32;38.69
48053;BME280;33824;51.600;5.718;2023-04-19T11:21:48;102370.81;;;14.36;39.56
48053;BME280;33824;51.600;5.718;2023-04-19T11:24:14;102343.81;;;14.38;38.92
48053;BME280;33824;51.600;5.718;2023-04-19T11:26:46;102350.34;;;14.35;38.85
48053;BME280;33824;51.600;5.718;2023-04-19T11:29:14;102355.34;;;14.30;39.80
48053;BME280;33824;51.600;5.718;2023-04-19T11:31:43;102346.34;;;14.48;38.21
48053;BME280;33824;51.600;5.718;2023-04-19T11:34:10;102339.53;;;14.69;39.04
48053;BME280;33824;51.600;5.718;2023-04-19T11:36:46;102354.34;;;14.98;35.31
48053;BME280;33824;51.600;5.718;2023-04-19T11:39:11;102337.22;;;14.91;35.05
48053;BME280;33824;51.600;5.718;2023-04-19T11:41:38;102342.09;;;14.95;35.37
48053;BME280;33824;51.600;5.718;2023-04-19T11:44:14;102326.50;;;14.91;33.44
48053;BME280;33824;51.600;5.718;2023-04-19T11:46:40;102330.34;;;15.28;36.30
48053;BME280;33824;51.600;5.718;2023-04-19T11:49:06;102321.44;;;15.36;36.26
48053;BME280;33824;51.600;5.718;2023-04-19T11:51:32;102321.28;;;15.54;38.35
48053;BME280;33824;51.600;5.718;2023-04-19T11:53:57;102318.09;;;15.50;36.47
48053;BME280;33824;51.600;5.718;2023-04-19T11:56:23;102307.66;;;15.47;36.00
48053;BME280;33824;51.600;5.718;2023-04-19T11:58:48;102323.09;;;15.37;36.37
48053;BME280;33824;51.600;5.718;2023-04-19T12:01:16;102309.16;;;15.33;36.54
48053;BME280;33824;51.600;5.718;2023-04-19T12:03:44;102306.66;;;15.32;36.67
48053;BME280;33824;51.600;5.718;2023-04-19T12:06:30;102303.66;;;15.03;33.48
48053;BME280;33824;51.600;5.718;2023-04-19T12:08:57;102291.03;;;15.35;35.16
48053;BME280;33824;51.600;5.718;2023-04-19T12:11:24;102305.13;;;15.37;33.70
48053;BME280;33824;51.600;5.718;2023-04-19T12:14:09;102293.88;;;15.34;33.71
48053;BME280;33824;51.600;5.718;2023-04-19T12:16:35;102284.16;;;15.33;33.58
48053;BME280;33824;51.600;5.718;2023-04-19T12:19:10;102293.09;;;15.17;32.96
48053;BME280;33824;51.600;5.718;2023-04-19T12:21:41;102286.31;;;15.29;31.97
48053;BME280;33824;51.600;5.718;2023-04-19T12:24:07;102283.63;;;15.29;33.35
48053;BME280;33824;51.600;5.718;2023-04-19T12:26:34;102292.72;;;15.36;31.73
48053;BME280;33824;51.600;5.718;2023-04-19T12:29:00;102283.00;;;15.27;30.91
48053;BME280;33824;51.600;5.718;2023-04-19T12:31:27;102256.59;;;15.55;31.76
48053;BME280;33824;51.600;5.718;2023-04-19T12:33:52;102261.97;;;15.55;30.45
48053;BME280;33824;51.600;5.718;2023-04-19T12:36:18;102272.22;;;15.60;29.93
48053;BME280;33824;51.600;5.718;2023-04-19T12:38:44;102257.59;;;15.54;29.86
48053;BME280;33824;51.600;5.718;2023-04-19T12:41:09;102263.25;;;15.75;30.81
48053;BME280;33824;51.600;5.718;2023-04-19T12:43:35;102266.25;;;15.80;29.56
48053;BME280;33824;51.600;5.718;2023-04-19T12:46:01;102262.13;;;15.62;28.01
48053;BME280;33824;51.600;5.718;2023-04-19T12:48:27;102264.06;;;15.76;30.01
48053;BME280;33824;51.600;5.718;2023-04-19T12:50:53;102255.50;;;15.80;29.76
48053;BME280;33824;51.600;5.718;2023-04-19T12:53:19;102251.78;;;15.90;29.66
48053;BME280;33824;51.600;5.718;2023-04-19T12:55:45;102249.81;;;16.06;30.91
48053;BME280;33824;51.600;5.718;2023-04-19T12:58:15;102235.66;;;15.81;28.16
48053;BME280;33824;51.600;5.718;2023-04-19T13:00:41;102230.59;;;15.87;30.08
48053;BME280;33824;51.600;5.718;2023-04-19T13:03:07;102242.38;;;15.86;29.84
48053;BME280;33824;51.600;5.718;2023-04-19T13:05:32;102238.84;;;15.85;30.53